sensor_id;sensor_type;location;lat;lon;timestamp;pressure;altitude;pressure_sealevel;temperature;humidity
70053;BME280;57398;52.032;4.376;2023-01-27T00:01:57;102874.63;;;5.16;100.00
70053;BME280;57398;52.032;4.376;2023-01-27T00:04:45;102878.13;;;5.15;100.00
70053;BME280;57398;52.032;4.376;2023-01-27T00:07:33;102865.00;;;5.18;100.00
70053;BME280;57398;52.032;4.376;2023-01-27T00:10:21;102869.34;;;5.18;100.00
70053;BME280;57398;52.032;4.376;2023-01-27T00:13:11;102864.03;;;5.19;100.00
70053;BME280;57398;52.032;4.376;2023-01-27T00:16:14;102853.31;;;5.14;100.00
70053;BME280;57398;52.032;4.376;2023-01-27T00:19:02;102849.66;;;5.17;100.00
70053;BME280;57398;52.032;4.376;2023-01-27T00:21:50;102840.72;;;5.11;100.00
70053;BME280;57398;52.032;4.376;2023-01-27T00:24:56;102842.22;;;5.23;100.00
70053;BME280;57398;52.032;4.376;2023-01-27T00:27:44;102853.72;;;5.19;100.00
70053;BME280;57398;52.032;4.376;2023-01-27T00:30:33;102848.34;;;5.22;100.00
70053;BME280;57398;52.032;4.376;2023-01-27T00:33:21;102846.44;;;5.24;100.00
70053;BME280;57398;52.032;4.376;2023-01-27T00:36:11;102840.31;;;5.25;100.00
70053;BME280;57398;52.032;4.376;2023-01-27T00:38:59;102828.81;;;5.30;100.00
70053;BME280;57398;52.032;4.376;2023-01-27T00:41:47;102831.63;;;5.27;100.00
70053;BME280;57398;52.032;4.376;2023-01-27T00:44:35;102828.13;;;5.28;100.00
70053;BME280;57398;52.032;4.376;2023-01-27T00:47:25;102823.78;;;5.28;100.00
70053;BME280;57398;52.032;4.376;2023-01-27T00:50:13;102822.41;;;5.24;100.00
70053;BME280;57398;52.032;4.376;2023-01-27T00:53:02;102820.41;;;5.28;100.00
70053;BME280;57398;52.032;4.376;2023-01-27T00:55:50;102830.13;;;5.24;100.00
70053;BME280;57398;52.032;4.376;2023-01-27T00:58:38;102821.47;;;5.25;100.00
70053;BME280;57398;52.032;4.376;2023-01-27T01:01:27;102830.69;;;5.28;100.00
70053;BME280;57398;52.032;4.376;2023-01-27T01:04:16;102829.06;;;5.27;100.00
70053;BME280;57398;52.032;4.376;2023-01-27T01:07:04;102831.63;;;5.27;100.00
70053;BME280;57398;52.032;4.376;2023-01-27T01:09:52;102842.22;;;5.23;100.00
70053;BME280;57398;52.032;4.376;2023-01-27T01:12:44;102836.13;;;5.24;100.00
70053;BME280;57398;52.032;4.376;2023-01-27T01:15:34;102821.72;;;5.22;100.00
70053;BME280;57398;52.032;4.376;2023-01-27T01:18:22;102826.75;;;5.23;100.00
70053;BME280;57398;52.032;4.376;2023-01-27T01:21:12;102827.84;;;5.21;100.00
70053;BME280;57398;52.032;4.376;2023-01-27T01:24:01;102829.59;;;5.20;100.00
70053;BME280;57398;52.032;4.376;2023-01-27T01:26:49;102825.25;;;5.21;100.00
70053;BME280;57398;52.032;4.376;2023-01-27T01:29:37;102831.91;;;5.14;100.00
70053;BME280;57398;52.032;4.376;2023-01-27T01:32:25;102840.16;;;5.17;100.00
70053;BME280;57398;52.032;4.376;2023-01-27T01:35:13;102841.53;;;5.12;100.00
70053;BME280;57398;52.032;4.376;2023-01-27T01:38:03;102842.84;;;5.06;100.00
70053;BME280;57398;52.032;4.376;2023-01-27T01:40:51;102843.13;;;5.03;100.00
70053;BME280;57398;52.032;4.376;2023-01-27T01:43:39;102837.97;;;5.03;100.00
70053;BME280;57398;52.032;4.376;2023-01-27T01:46:27;102844.19;;;5.00;100.00
70053;BME280;57398;52.032;4.376;2023-01-27T01:49:17;102849.63;;;4.97;100.00
70053;BME280;57398;52.032;4.376;2023-01-27T01:52:07;102856.09;;;4.92;100.00
70053;BME280;57398;52.032;4.376;2023-01-27T01:54:58;102855.41;;;4.90;100.00
70053;BME280;57398;52.032;4.376;2023-01-27T01:57:46;102859.88;;;4.88;100.00
70053;BME280;57398;52.032;4.376;2023-01-27T02:00:35;102865.28;;;4.85;100.00
70053;BME280;57398;52.032;4.376;2023-01-27T02:03:24;102862.72;;;4.85;100.00
70053;BME280;57398;52.032;4.376;2023-01-27T02:06:12;102862.31;;;4.79;100.00
70053;BME280;57398;52.032;4.376;2023-01-27T02:09:00;102854.97;;;4.75;100.00
70053;BME280;57398;52.032;4.376;2023-01-27T02:11:50;102864.69;;;4.71;100.00
70053;BME280;57398;52.032;4.376;2023-01-27T02:14:38;102867.28;;;4.71;100.00
70053;BME280;57398;52.032;4.376;2023-01-27T02:17:27;102872.69;;;4.68;100.00
70053;BME280;57398;52.032;4.376;2023-01-27T02:20:19;102870.38;;;4.65;100.00
70053;BME280;57398;52.032;4.376;2023-01-27T02:23:18;102870.88;;;4.59;100.00
70053;BME280;57398;52.032;4.376;2023-01-27T02:26:14;102872.06;;;4.55;100.00
70053;BME280;57398;52.032;4.376;2023-01-27T02:29:06;102876.53;;;4.53;100.00
70053;BME280;57398;52.032;4.376;2023-01-27T02:31:55;102869.19;;;4.48;100.00
70053;BME280;57398;52.032;4.376;2023-01-27T02:34:43;102867.44;;;4.49;100.00
70053;BME280;57398;52.032;4.376;2023-01-27T02:37:31;102858.91;;;4.48;100.00
70053;BME280;57398;52.032;4.376;2023-01-27T02:40:20;102859.97;;;4.46;100.00
70053;BME280;57398;52.032;4.376;2023-01-27T02:43:10;102859.16;;;4.45;100.00
70053;BME280;57398;52.032;4.376;2023-01-27T02:45:58;102859.28;;;4.44;100.00
70053;BME280;57398;52.032;4.376;2023-01-27T02:48:46;102869.59;;;4.44;100.00
70053;BME280;57398;52.032;4.376;2023-01-27T02:51:34;102887.97;;;4.39;100.00
70053;BME280;57398;52.032;4.376;2023-01-27T02:54:23;102886.97;;;4.30;100.00
70053;BME280;57398;52.032;4.376;2023-01-27T02:57:15;102889.09;;;4.25;100.00
70053;BME280;57398;52.032;4.376;2023-01-27T03:00:05;102893.38;;;4.15;100.00
70053;BME280;57398;52.032;4.376;2023-01-27T03:02:55;102893.44;;;4.04;100.00
70053;BME280;57398;52.032;4.376;2023-01-27T03:05:43;102897.31;;;3.98;100.00
70053;BME280;57398;52.032;4.376;2023-01-27T03:08:31;102894.66;;;3.88;100.00
70053;BME280;57398;52.032;4.376;2023-01-27T03:11:19;102886.94;;;3.88;100.00
70053;BME280;57398;52.032;4.376;2023-01-27T03:14:21;102889.88;;;3.84;100.00
70053;BME280;57398;52.032;4.376;2023-01-27T03:17:25;102912.22;;;3.83;100.00
70053;BME280;57398;52.032;4.376;2023-01-27T03:20:30;102904.50;;;3.83;100.00
70053;BME280;57398;52.032;4.376;2023-01-27T03:23:18;102903.44;;;3.86;100.00
70053;BME280;57398;52.032;4.376;2023-01-27T03:26:08;102896.09;;;3.81;100.00
70053;BME280;57398;52.032;4.376;2023-01-27T03:28:56;102892.03;;;3.78;100.00
70053;BME280;57398;52.032;4.376;2023-01-27T03:31:58;102908.38;;;3.77;100.00
70053;BME280;57398;52.032;4.376;2023-01-27T03:34:47;102915.28;;;3.77;100.00
70053;BME280;57398;52.032;4.376;2023-01-27T03:37:35;102922.06;;;3.78;100.00
70053;BME280;57398;52.032;4.376;2023-01-27T03:40:41;102920.22;;;3.69;100.00
70053;BME280;57398;52.032;4.376;2023-01-27T03:43:47;102914.84;;;3.61;100.00
70053;BME280;57398;52.032;4.376;2023-01-27T03:46:52;102909.13;;;3.57;100.00
70053;BME280;57398;52.032;4.376;2023-01-27T03:49:40;102920.34;;;3.56;100.00
70053;BME280;57398;52.032;4.376;2023-01-27T03:52:30;102932.38;;;3.55;100.00
70053;BME280;57398;52.032;4.376;2023-01-27T03:55:18;102919.91;;;3.51;100.00
70053;BME280;57398;52.032;4.376;2023-01-27T03:58:16;102932.50;;;3.54;100.00
70053;BME280;57398;52.032;4.376;2023-01-27T04:01:07;102925.03;;;3.51;100.00
70053;BME280;57398;52.032;4.376;2023-01-27T04:03:59;102932.97;;;3.48;100.00
70053;BME280;57398;52.032;4.376;2023-01-27T04:07:04;102936.03;;;3.42;100.00
70053;BME280;57398;52.032;4.376;2023-01-27T04:09:54;102940.47;;;3.40;100.00
70053;BME280;57398;52.032;4.376;2023-01-27T04:12:42;102943.16;;;3.38;100.00
70053;BME280;57398;52.032;4.376;2023-01-27T04:15:29;102947.47;;;3.38;100.00
70053;BME280;57398;52.032;4.376;2023-01-27T04:18:17;102960.09;;;3.41;100.00
70053;BME280;57398;52.032;4.376;2023-01-27T04:21:05;102959.03;;;3.43;100.00
70053;BME280;57398;52.032;4.376;2023-01-27T04:23:53;102959.38;;;3.39;100.00
70053;BME280;57398;52.032;4.376;2023-01-27T04:26:44;102964.16;;;3.43;100.00
70053;BME280;57398;52.032;4.376;2023-01-27T04:29:34;102964.41;;;3.40;100.00
70053;BME280;57398;52.032;4.376;2023-01-27T04:32:22;102967.09;;;3.39;100.00
70053;BME280;57398;52.032;4.376;2023-01-27T04:35:12;102966.16;;;3.40;100.00
70053;BME280;57398;52.032;4.376;2023-01-27T04:38:00;102970.59;;;3.38;100.00
70053;BME280;57398;52.032;4.376;2023-01-27T04:40:48;102964.88;;;3.34;100.00
70053;BME280;57398;52.032;4.376;2023-01-27T04:43:38;102963.00;;;3.36;100.00
70053;BME280;57398;52.032;4.376;2023-01-27T04:46:26;102965.56;;;3.36;100.00
70053;BME280;57398;52.032;4.376;2023-01-27T04:49:14;102958.09;;;3.33;100.00
70053;BME280;57398;52.032;4.376;2023-01-27T04:52:02;102962.31;;;3.34;100.00
70053;BME280;57398;52.032;4.376;2023-01-27T04:54:51;102975.16;;;3.34;100.00
70053;BME280;57398;52.032;4.376;2023-01-27T04:57:38;102968.38;;;3.33;100.00
70053;BME280;57398;52.032;4.376;2023-01-27T05:00:28;102972.13;;;3.29;100.00
70053;BME280;57398;52.032;4.376;2023-01-27T05:03:16;102972.56;;;3.34;100.00
70053;BME280;57398;52.032;4.376;2023-01-27T05:06:04;102967.69;;;3.31;100.00
70053;BME280;57398;52.032;4.376;2023-01-27T05:08:52;102970.94;;;3.33;100.00
70053;BME280;57398;52.032;4.376;2023-01-27T05:11:40;102983.19;;;3.29;100.00
70053;BME280;57398;52.032;4.376;2023-01-27T05:14:28;102979.81;;;3.29;100.00
70053;BME280;57398;52.032;4.376;2023-01-27T05:17:18;102986.47;;;3.31;100.00
70053;BME280;57398;52.032;4.376;2023-01-27T05:20:06;102978.75;;;3.31;100.00
70053;BME280;57398;52.032;4.376;2023-01-27T05:22:55;102977.00;;;3.32;100.00
70053;BME280;57398;52.032;4.376;2023-01-27T05:26:05;102987.53;;;3.29;100.00
70053;BME280;57398;52.032;4.376;2023-01-27T05:28:55;102986.47;;;3.31;100.00
70053;BME280;57398;52.032;4.376;2023-01-27T05:31:44;102972.81;;;3.31;100.00
70053;BME280;57398;52.032;4.376;2023-01-27T05:34:33;102973.28;;;3.36;100.00
70053;BME280;57398;52.032;4.376;2023-01-27T05:37:21;102971.75;;;3.33;100.00
70053;BME280;57398;52.032;4.376;2023-01-27T05:40:10;102966.06;;;3.30;100.00
70053;BME280;57398;52.032;4.376;2023-01-27T05:42:58;102970.00;;;3.34;100.00
70053;BME280;57398;52.032;4.376;2023-01-27T05:45:47;102971.31;;;3.40;100.00
70053;BME280;57398;52.032;4.376;2023-01-27T05:48:36;102977.34;;;3.39;100.00
70053;BME280;57398;52.032;4.376;2023-01-27T05:51:29;102984.16;;;3.40;100.00
70053;BME280;57398;52.032;4.376;2023-01-27T05:54:17;102977.00;;;3.43;100.00
70053;BME280;57398;52.032;4.376;2023-01-27T05:57:05;102977.97;;;3.42;100.00
70053;BME280;57398;52.032;4.376;2023-01-27T05:59:53;102974.56;;;3.42;100.00
70053;BME280;57398;52.032;4.376;2023-01-27T06:02:41;102976.19;;;3.43;100.00
70053;BME280;57398;52.032;4.376;2023-01-27T06:05:29;102974.31;;;3.45;100.00
70053;BME280;57398;52.032;4.376;2023-01-27T06:08:19;102979.34;;;3.46;100.00
70053;BME280;57398;52.032;4.376;2023-01-27T06:11:07;102971.75;;;3.45;100.00
70053;BME280;57398;52.032;4.376;2023-01-27T06:13:55;102968.84;;;3.49;100.00
70053;BME280;57398;52.032;4.376;2023-01-27T06:16:44;102976.53;;;3.49;100.00
70053;BME280;57398;52.032;4.376;2023-01-27T06:19:33;102974.69;;;3.51;100.00
70053;BME280;57398;52.032;4.376;2023-01-27T06:22:21;102981.56;;;3.51;100.00
70053;BME280;57398;52.032;4.376;2023-01-27T06:25:10;102976.53;;;3.49;100.00
70053;BME280;57398;52.032;4.376;2023-01-27T06:27:58;103000.72;;;3.47;100.00
70053;BME280;57398;52.032;4.376;2023-01-27T06:30:47;102995.47;;;3.48;100.00
70053;BME280;57398;52.032;4.376;2023-01-27T06:33:37;103004.22;;;3.46;100.00
70053;BME280;57398;52.032;4.376;2023-01-27T06:36:25;103002.69;;;3.43;100.00
70053;BME280;57398;52.032;4.376;2023-01-27T06:39:13;103004.47;;;3.43;100.00
70053;BME280;57398;52.032;4.376;2023-01-27T06:42:03;102987.19;;;3.45;100.00
70053;BME280;57398;52.032;4.376;2023-01-27T06:44:53;103002.69;;;3.43;100.00
70053;BME280;57398;52.032;4.376;2023-01-27T06:47:41;103005.41;;;3.42;100.00
70053;BME280;57398;52.032;4.376;2023-01-27T06:50:29;103000.47;;;3.39;100.00
70053;BME280;57398;52.032;4.376;2023-01-27T06:53:17;103008.31;;;3.37;100.00
70053;BME280;57398;52.032;4.376;2023-01-27T06:56:06;103006.91;;;3.33;100.00
70053;BME280;57398;52.032;4.376;2023-01-27T06:58:55;103003.41;;;3.34;100.00
70053;BME280;57398;52.032;4.376;2023-01-27T07:01:43;103004.69;;;3.28;100.00
70053;BME280;57398;52.032;4.376;2023-01-27T07:04:31;103016.03;;;3.26;100.00
70053;BME280;57398;52.032;4.376;2023-01-27T07:07:20;103000.72;;;3.24;100.00
70053;BME280;57398;52.032;4.376;2023-01-27T07:10:09;103001.31;;;3.17;100.00
70053;BME280;57398;52.032;4.376;2023-01-27T07:13:03;103002.22;;;3.15;100.00
70053;BME280;57398;52.032;4.376;2023-01-27T07:15:56;103008.75;;;3.08;100.00
70053;BME280;57398;52.032;4.376;2023-01-27T07:18:45;103018.47;;;3.05;100.00
70053;BME280;57398;52.032;4.376;2023-01-27T07:21:33;103006.09;;;3.10;100.00
70053;BME280;57398;52.032;4.376;2023-01-27T07:24:21;103006.19;;;3.08;100.00
70053;BME280;57398;52.032;4.376;2023-01-27T07:27:10;103017.06;;;3.12;100.00
70053;BME280;57398;52.032;4.376;2023-01-27T07:29:58;103021.34;;;3.11;100.00
70053;BME280;57398;52.032;4.376;2023-01-27T07:32:47;103023.25;;;3.09;100.00
70053;BME280;57398;52.032;4.376;2023-01-27T07:35:37;103033.38;;;3.11;100.00
70053;BME280;57398;52.032;4.376;2023-01-27T07:38:25;103034.19;;;3.11;100.00
70053;BME280;57398;52.032;4.376;2023-01-27T07:41:13;103049.13;;;3.06;100.00
70053;BME280;57398;52.032;4.376;2023-01-27T07:44:01;103050.19;;;3.04;100.00
70053;BME280;57398;52.032;4.376;2023-01-27T07:46:49;103052.66;;;3.05;100.00
70053;BME280;57398;52.032;4.376;2023-01-27T07:49:38;103056.84;;;3.06;100.00
70053;BME280;57398;52.032;4.376;2023-01-27T07:52:26;103054.16;;;3.08;100.00
70053;BME280;57398;52.032;4.376;2023-01-27T07:55:14;103063.72;;;3.06;100.00
70053;BME280;57398;52.032;4.376;2023-01-27T07:58:03;103059.66;;;3.03;100.00
70053;BME280;57398;52.032;4.376;2023-01-27T08:00:51;103075.16;;;3.02;100.00
70053;BME280;57398;52.032;4.376;2023-01-27T08:03:38;103078.19;;;2.96;100.00
70053;BME280;57398;52.032;4.376;2023-01-27T08:06:29;103078.03;;;2.86;100.00
70053;BME280;57398;52.032;4.376;2023-01-27T08:09:18;103084.31;;;2.82;100.00
70053;BME280;57398;52.032;4.376;2023-01-27T08:12:06;103076.84;;;2.79;100.00
70053;BME280;57398;52.032;4.376;2023-01-27T08:14:54;103080.13;;;2.81;100.00
70053;BME280;57398;52.032;4.376;2023-01-27T08:17:42;103070.78;;;2.80;100.00
70053;BME280;57398;52.032;4.376;2023-01-27T08:20:30;103068.81;;;2.83;100.00
70053;BME280;57398;52.032;4.376;2023-01-27T08:23:21;103081.44;;;2.86;100.00
70053;BME280;57398;52.032;4.376;2023-01-27T08:26:09;103081.69;;;2.94;100.00
70053;BME280;57398;52.032;4.376;2023-01-27T08:28:57;103085.19;;;2.93;100.00
70053;BME280;57398;52.032;4.376;2023-01-27T08:31:46;103086.94;;;3.04;100.00
70053;BME280;57398;52.032;4.376;2023-01-27T08:34:35;103084.50;;;3.03;100.00
70053;BME280;57398;52.032;4.376;2023-01-27T08:37:23;103085.78;;;3.08;100.00
70053;BME280;57398;52.032;4.376;2023-01-27T08:40:13;103084.16;;;3.07;100.00
70053;BME280;57398;52.032;4.376;2023-01-27T08:43:01;103075.41;;;3.10;100.00
70053;BME280;57398;52.032;4.376;2023-01-27T08:45:51;103080.31;;;3.13;100.00
70053;BME280;57398;52.032;4.376;2023-01-27T08:48:39;103081.84;;;3.15;100.00
70053;BME280;57398;52.032;4.376;2023-01-27T08:51:28;103079.28;;;3.15;100.00
70053;BME280;57398;52.032;4.376;2023-01-27T08:54:16;103094.22;;;3.22;100.00
70053;BME280;57398;52.032;4.376;2023-01-27T08:57:05;103087.94;;;3.26;100.00
70053;BME280;57398;52.032;4.376;2023-01-27T08:59:53;103090.72;;;3.23;100.00
70053;BME280;57398;52.032;4.376;2023-01-27T09:02:42;103098.91;;;3.17;100.00
70053;BME280;57398;52.032;4.376;2023-01-27T09:05:34;103097.72;;;3.21;100.00
70053;BME280;57398;52.032;4.376;2023-01-27T09:08:23;103104.25;;;3.13;100.00
70053;BME280;57398;52.032;4.376;2023-01-27T09:11:14;103113.59;;;3.14;100.00
70053;BME280;57398;52.032;4.376;2023-01-27T09:14:04;103110.31;;;3.12;100.00
70053;BME280;57398;52.032;4.376;2023-01-27T09:16:52;103103.91;;;3.18;100.00
70053;BME280;57398;52.032;4.376;2023-01-27T09:19:40;103102.63;;;3.12;100.00
70053;BME280;57398;52.032;4.376;2023-01-27T09:22:29;103103.47;;;3.24;100.00
70053;BME280;57398;52.032;4.376;2023-01-27T09:25:17;103107.41;;;3.17;100.00
70053;BME280;57398;52.032;4.376;2023-01-27T09:28:05;103096.31;;;3.05;100.00
70053;BME280;57398;52.032;4.376;2023-01-27T09:30:59;103096.16;;;2.96;100.00
70053;BME280;57398;52.032;4.376;2023-01-27T09:33:47;103115.38;;;2.90;100.00
70053;BME280;57398;52.032;4.376;2023-01-27T09:36:39;103107.13;;;2.98;100.00
70053;BME280;57398;52.032;4.376;2023-01-27T09:39:30;103107.50;;;3.04;100.00
70053;BME280;57398;52.032;4.376;2023-01-27T09:42:37;103111.03;;;3.14;100.00
70053;BME280;57398;52.032;4.376;2023-01-27T09:45:41;103119.59;;;3.26;100.00
70053;BME280;57398;52.032;4.376;2023-01-27T09:48:54;103104.44;;;3.34;100.00
70053;BME280;57398;52.032;4.376;2023-01-27T09:51:52;103109.91;;;3.30;100.00
70053;BME280;57398;52.032;4.376;2023-01-27T09:54:56;103105.03;;;3.49;100.00
70053;BME280;57398;52.032;4.376;2023-01-27T09:57:52;103106.91;;;3.70;100.00
70053;BME280;57398;52.032;4.376;2023-01-27T10:00:50;103107.25;;;3.65;100.00
70053;BME280;57398;52.032;4.376;2023-01-27T10:04:05;103096.47;;;3.26;100.00
70053;BME280;57398;52.032;4.376;2023-01-27T10:07:10;103096.09;;;3.20;100.00
70053;BME280;57398;52.032;4.376;2023-01-27T10:10:10;103092.91;;;3.16;100.00
70053;BME280;57398;52.032;4.376;2023-01-27T10:13:17;103101.00;;;3.23;100.00
70053;BME280;57398;52.032;4.376;2023-01-27T10:16:25;103093.44;;;3.21;100.00
70053;BME280;57398;52.032;4.376;2023-01-27T10:19:47;103101.84;;;3.23;100.00
70053;BME280;57398;52.032;4.376;2023-01-27T10:22:44;103099.63;;;3.30;100.00
70053;BME280;57398;52.032;4.376;2023-01-27T10:25:44;103098.94;;;3.28;100.00
70053;BME280;57398;52.032;4.376;2023-01-27T10:28:36;103101.72;;;3.36;100.00
70053;BME280;57398;52.032;4.376;2023-01-27T10:31:26;103094.28;;;3.44;100.00
70053;BME280;57398;52.032;4.376;2023-01-27T10:34:26;103100.13;;;3.46;100.00
70053;BME280;57398;52.032;4.376;2023-01-27T10:37:24;103094.13;;;3.46;100.00
70053;BME280;57398;52.032;4.376;2023-01-27T10:40:19;103093.69;;;3.52;100.00
70053;BME280;57398;52.032;4.376;2023-01-27T10:43:17;103094.28;;;3.55;100.00
70053;BME280;57398;52.032;4.376;2023-01-27T10:46:16;103097.78;;;3.66;100.00
70053;BME280;57398;52.032;4.376;2023-01-27T10:49:14;103102.22;;;3.64;100.00
70053;BME280;57398;52.032;4.376;2023-01-27T10:52:12;103091.81;;;3.65;100.00
70053;BME280;57398;52.032;4.376;2023-01-27T10:55:13;103109.47;;;3.81;100.00
70053;BME280;57398;52.032;4.376;2023-01-27T10:58:08;103094.28;;;3.78;100.00
70053;BME280;57398;52.032;4.376;2023-01-27T11:00:57;103084.69;;;3.80;100.00
70053;BME280;57398;52.032;4.376;2023-01-27T11:04:10;103085.16;;;3.85;100.00
70053;BME280;57398;52.032;4.376;2023-01-27T11:07:03;103082.81;;;3.93;100.00
70053;BME280;57398;52.032;4.376;2023-01-27T11:09:55;103073.69;;;4.01;100.00
70053;BME280;57398;52.032;4.376;2023-01-27T11:12:47;103073.22;;;4.07;100.00
70053;BME280;57398;52.032;4.376;2023-01-27T11:15:36;103074.59;;;4.11;100.00
70053;BME280;57398;52.032;4.376;2023-01-27T11:18:26;103078.09;;;4.10;100.00
70053;BME280;57398;52.032;4.376;2023-01-27T11:21:18;103074.16;;;4.06;100.00
70053;BME280;57398;52.032;4.376;2023-01-27T11:24:17;103081.50;;;4.10;100.00
70053;BME280;57398;52.032;4.376;2023-01-27T11:27:14;103079.22;;;4.28;100.00
70053;BME280;57398;52.032;4.376;2023-01-27T11:30:12;103074.44;;;4.24;100.00
70053;BME280;57398;52.032;4.376;2023-01-27T11:33:10;103067.97;;;4.08;100.00
70053;BME280;57398;52.032;4.376;2023-01-27T11:36:03;103072.94;;;4.21;100.00
70053;BME280;57398;52.032;4.376;2023-01-27T11:38:52;103066.84;;;4.33;100.00
70053;BME280;57398;52.032;4.376;2023-01-27T11:41:45;103063.38;;;4.44;100.00
70053;BME280;57398;52.032;4.376;2023-01-27T11:44:34;103066.84;;;4.33;100.00
70053;BME280;57398;52.032;4.376;2023-01-27T11:47:27;103061.50;;;4.46;100.00
70053;BME280;57398;52.032;4.376;2023-01-27T11:50:17;103062.94;;;4.39;100.00
70053;BME280;57398;52.032;4.376;2023-01-27T11:53:11;103055.84;;;4.31;100.00
70053;BME280;57398;52.032;4.376;2023-01-27T11:56:04;103057.63;;;4.31;100.00
70053;BME280;57398;52.032;4.376;2023-01-27T11:58:58;103057.13;;;4.58;100.00
70053;BME280;57398;52.032;4.376;2023-01-27T12:01:53;103051.06;;;4.59;100.00
70053;BME280;57398;52.032;4.376;2023-01-27T12:04:48;103042.53;;;4.79;100.00
70053;BME280;57398;52.032;4.376;2023-01-27T12:07:45;103043.41;;;4.90;100.00
70053;BME280;57398;52.032;4.376;2023-01-27T12:10:36;103035.69;;;4.90;100.00
70053;BME280;57398;52.032;4.376;2023-01-27T12:13:27;103035.63;;;5.01;100.00
70053;BME280;57398;52.032;4.376;2023-01-27T12:16:16;103040.25;;;5.07;100.00
70053;BME280;57398;52.032;4.376;2023-01-27T12:19:14;103029.91;;;4.97;100.00
70053;BME280;57398;52.032;4.376;2023-01-27T12:22:13;103028.72;;;4.80;100.00
70053;BME280;57398;52.032;4.376;2023-01-27T12:25:14;103023.88;;;4.87;100.00
70053;BME280;57398;52.032;4.376;2023-01-27T12:28:03;103031.28;;;4.80;100.00
70053;BME280;57398;52.032;4.376;2023-01-27T12:30:53;103033.38;;;4.66;100.00
70053;BME280;57398;52.032;4.376;2023-01-27T12:33:44;103034.94;;;4.57;100.00
70053;BME280;57398;52.032;4.376;2023-01-27T12:36:37;103029.88;;;4.55;100.00
70053;BME280;57398;52.032;4.376;2023-01-27T12:39:35;103022.16;;;4.55;100.00
70053;BME280;57398;52.032;4.376;2023-01-27T12:42:36;103030.16;;;4.52;100.00
70053;BME280;57398;52.032;4.376;2023-01-27T12:45:26;103026.13;;;4.59;100.00
70053;BME280;57398;52.032;4.376;2023-01-27T12:48:18;103027.91;;;4.59;100.00
70053;BME280;57398;52.032;4.376;2023-01-27T12:51:14;103029.22;;;4.74;100.00
70053;BME280;57398;52.032;4.376;2023-01-27T12:54:14;103022.88;;;4.78;100.00
70053;BME280;57398;52.032;4.376;2023-01-27T12:57:05;103020.44;;;4.77;100.00
70053;BME280;57398;52.032;4.376;2023-01-27T12:59:58;103018.63;;;4.68;100.00
70053;BME280;57398;52.032;4.376;2023-01-27T13:02:46;103015.84;;;4.80;100.00
70053;BME280;57398;52.032;4.376;2023-01-27T13:05:37;103013.78;;;4.74;100.00
70053;BME280;57398;52.032;4.376;2023-01-27T13:08:30;103013.31;;;4.69;100.00
70053;BME280;57398;52.032;4.376;2023-01-27T13:11:30;103009.69;;;4.72;100.00
70053;BME280;57398;52.032;4.376;2023-01-27T13:14:20;103009.81;;;4.70;100.00
70053;BME280;57398;52.032;4.376;2023-01-27T13:17:27;103015.66;;;4.72;100.00
70053;BME280;57398;52.032;4.376;2023-01-27T13:20:19;103015.56;;;4.62;100.00
70053;BME280;57398;52.032;4.376;2023-01-27T13:23:12;103009.75;;;4.60;100.00
70053;BME280;57398;52.032;4.376;2023-01-27T13:26:09;103025.00;;;4.52;100.00
70053;BME280;57398;52.032;4.376;2023-01-27T13:29:03;103018.66;;;4.56;100.00
70053;BME280;57398;52.032;4.376;2023-01-27T13:32:03;103017.66;;;4.48;100.00
70053;BME280;57398;52.032;4.376;2023-01-27T13:34:58;103023.13;;;4.54;100.00
70053;BME280;57398;52.032;4.376;2023-01-27T13:37:55;103029.81;;;4.46;100.00
70053;BME280;57398;52.032;4.376;2023-01-27T13:40:45;103031.97;;;4.40;100.00
70053;BME280;57398;52.032;4.376;2023-01-27T13:43:37;103038.72;;;4.41;100.00
70053;BME280;57398;52.032;4.376;2023-01-27T13:46:29;103032.66;;;4.43;100.00
70053;BME280;57398;52.032;4.376;2023-01-27T13:49:29;103041.06;;;4.45;100.00
70053;BME280;57398;52.032;4.376;2023-01-27T13:52:18;103035.34;;;4.41;100.00
70053;BME280;57398;52.032;4.376;2023-01-27T13:55:10;103035.13;;;4.33;100.00
70053;BME280;57398;52.032;4.376;2023-01-27T13:58:03;103038.75;;;4.30;100.00
70053;BME280;57398;52.032;4.376;2023-01-27T14:01:01;103042.53;;;4.26;100.00
70053;BME280;57398;52.032;4.376;2023-01-27T14:07:25;103043.34;;;4.27;100.00
70053;BME280;57398;52.032;4.376;2023-01-27T14:10:21;103048.97;;;4.20;100.00
70053;BME280;57398;52.032;4.376;2023-01-27T14:13:23;103052.38;;;4.10;100.00
70053;BME280;57398;52.032;4.376;2023-01-27T14:16:18;103054.63;;;4.03;100.00
70053;BME280;57398;52.032;4.376;2023-01-27T14:19:23;103051.84;;;3.95;100.00
70053;BME280;57398;52.032;4.376;2023-01-27T14:22:20;103053.13;;;3.89;100.00
70053;BME280;57398;52.032;4.376;2023-01-27T14:25:22;103059.69;;;3.82;100.00
70053;BME280;57398;52.032;4.376;2023-01-27T14:28:20;103065.31;;;3.87;100.00
70053;BME280;57398;52.032;4.376;2023-01-27T14:31:15;103063.19;;;3.92;100.00
70053;BME280;57398;52.032;4.376;2023-01-27T14:34:10;103068.78;;;3.97;100.00
70053;BME280;57398;52.032;4.376;2023-01-27T14:37:12;103061.31;;;3.94;100.00
70053;BME280;57398;52.032;4.376;2023-01-27T14:40:14;103062.50;;;3.79;100.00
70053;BME280;57398;52.032;4.376;2023-01-27T14:43:12;103067.72;;;3.89;100.00
70053;BME280;57398;52.032;4.376;2023-01-27T14:46:08;103070.66;;;3.84;100.00
70053;BME280;57398;52.032;4.376;2023-01-27T14:49:05;103068.22;;;3.83;100.00
70053;BME280;57398;52.032;4.376;2023-01-27T14:52:00;103070.09;;;3.81;100.00
70053;BME280;57398;52.032;4.376;2023-01-27T14:54:59;103076.50;;;3.75;100.00
70053;BME280;57398;52.032;4.376;2023-01-27T14:57:56;103081.66;;;3.75;100.00
70053;BME280;57398;52.032;4.376;2023-01-27T15:01:02;103078.38;;;3.73;100.00
70053;BME280;57398;52.032;4.376;2023-01-27T15:04:06;103079.78;;;3.66;100.00